createdAt,value
2022-08-24T00:01:57.812Z,20.18
2022-08-24T00:04:26.880Z,20.19
2022-08-24T00:06:56.473Z,20.17
2022-08-24T00:09:24.582Z,20.12
2022-08-24T00:11:52.901Z,20.08
2022-08-24T00:14:22.406Z,20.05
2022-08-24T00:16:50.863Z,20.05
2022-08-24T00:19:19.039Z,20.13
2022-08-24T00:21:47.236Z,20.12
2022-08-24T00:24:15.784Z,20.13
2022-08-24T00:26:44.289Z,20.10
2022-08-24T00:29:12.975Z,20.08
2022-08-24T00:31:43.025Z,20.00
2022-08-24T00:34:13.434Z,19.98
2022-08-24T00:36:42.195Z,20.02
2022-08-24T00:39:10.941Z,20.05
2022-08-24T00:41:43.338Z,20.04
2022-08-24T00:44:13.914Z,19.99
2022-08-24T00:46:52.974Z,19.95
2022-08-24T00:49:26.419Z,19.91
2022-08-24T00:52:01.367Z,19.86
2022-08-24T00:54:34.860Z,19.86
2022-08-24T00:57:10.362Z,19.89
2022-08-24T00:59:43.528Z,19.90
2022-08-24T01:02:21.127Z,19.87
2022-08-24T01:04:54.595Z,19.87
2022-08-24T01:07:24.228Z,19.84
2022-08-24T01:09:54.060Z,19.76
2022-08-24T01:12:25.348Z,19.74
2022-08-24T01:14:55.299Z,19.74
2022-08-24T01:17:42.457Z,19.66
2022-08-24T01:20:12.046Z,19.66
2022-08-24T01:22:54.624Z,19.63
2022-08-24T01:25:26.557Z,19.63
2022-08-24T01:27:57.598Z,19.60
2022-08-24T01:30:30.541Z,19.58
2022-08-24T01:33:09.056Z,19.57
2022-08-24T01:35:39.017Z,19.54
2022-08-24T01:38:11.524Z,19.52
2022-08-24T01:40:46.356Z,19.48
2022-08-24T01:43:16.088Z,19.46
2022-08-24T01:45:44.785Z,19.48
2022-08-24T01:48:13.929Z,19.44
2022-08-24T01:50:42.351Z,19.41
2022-08-24T01:53:11.653Z,19.37
2022-08-24T01:55:42.551Z,19.41
2022-08-24T01:58:11.029Z,19.44
2022-08-24T02:00:43.531Z,19.44
2022-08-24T02:03:11.717Z,19.45
2022-08-24T02:05:40.793Z,19.43
2022-08-24T02:08:11.512Z,19.37
2022-08-24T02:10:41.182Z,19.37
2022-08-24T02:13:17.496Z,19.30
2022-08-24T02:15:45.736Z,19.30
2022-08-24T02:18:16.489Z,19.29
2022-08-24T02:20:45.878Z,19.28
2022-08-24T02:23:15.005Z,19.26
2022-08-24T02:25:45.212Z,19.28
2022-08-24T02:28:14.113Z,19.22
2022-08-24T02:30:42.386Z,19.16
2022-08-24T02:33:10.542Z,19.14
2022-08-24T02:35:39.011Z,19.15
2022-08-24T02:38:09.132Z,19.15
2022-08-24T02:40:39.395Z,19.17
2022-08-24T02:43:09.245Z,19.11
2022-08-24T02:45:39.962Z,19.16
2022-08-24T02:48:08.669Z,19.16
2022-08-24T02:50:40.838Z,19.19
2022-08-24T02:53:09.235Z,19.19
2022-08-24T02:55:39.413Z,19.18
2022-08-24T02:58:10.421Z,19.14
2022-08-24T03:00:41.599Z,19.07
2022-08-24T03:03:11.526Z,19.07
2022-08-24T03:05:40.511Z,19.08
2022-08-24T03:08:09.505Z,19.08
2022-08-24T03:10:37.960Z,19.11
2022-08-24T03:13:08.124Z,19.07
2022-08-24T03:15:36.728Z,19.10
2022-08-24T03:18:05.222Z,19.07
2022-08-24T03:20:33.339Z,19.02
2022-08-24T03:23:01.713Z,18.97
2022-08-24T03:25:29.985Z,18.93
2022-08-24T03:27:58.093Z,18.92
2022-08-24T03:30:28.368Z,18.90
2022-08-24T03:32:57.437Z,18.90
2022-08-24T03:35:25.719Z,18.86
2022-08-24T03:37:54.374Z,18.88
2022-08-24T03:40:24.528Z,18.88
2022-08-24T03:42:56.524Z,18.88
2022-08-24T03:45:24.741Z,18.83
2022-08-24T03:47:54.555Z,18.86
2022-08-24T03:50:24.207Z,18.86
2022-08-24T03:52:53.188Z,18.88
2022-08-24T03:55:21.820Z,18.93
2022-08-24T03:57:50.384Z,18.96
2022-08-24T04:00:18.973Z,18.93
2022-08-24T04:02:57.838Z,18.91
2022-08-24T04:05:27.814Z,18.89
2022-08-24T04:08:03.303Z,18.87
2022-08-24T04:10:31.489Z,18.88
2022-08-24T04:13:01.580Z,18.91
2022-08-24T04:15:32.264Z,18.94
2022-08-24T04:18:01.842Z,18.98
2022-08-24T04:20:29.889Z,18.94
2022-08-24T04:22:58.232Z,18.94
2022-08-24T04:25:26.557Z,19.00
2022-08-24T04:27:54.872Z,19.03
2022-08-24T04:30:24.718Z,19.06
2022-08-24T04:33:15.543Z,19.06
2022-08-24T04:35:48.300Z,19.11
2022-08-24T04:38:18.093Z,19.17
2022-08-24T04:41:00.341Z,19.22
2022-08-24T04:43:28.953Z,19.22
2022-08-24T04:45:59.786Z,19.21
2022-08-24T04:48:29.647Z,19.26
2022-08-24T04:51:03.286Z,19.29
2022-08-24T04:53:31.806Z,19.32
2022-08-24T04:56:00.495Z,19.33
2022-08-24T04:58:30.587Z,19.36
2022-08-24T05:01:00.164Z,19.42
2022-08-24T05:03:30.058Z,19.48
2022-08-24T05:05:58.303Z,19.53
2022-08-24T05:08:27.152Z,19.62
2022-08-24T05:10:55.295Z,19.68
2022-08-24T05:13:23.473Z,19.76
2022-08-24T05:15:51.611Z,19.82
2022-08-24T05:18:20.593Z,19.90
2022-08-24T05:20:50.144Z,19.93
2022-08-24T05:23:19.824Z,19.98
2022-08-24T05:25:48.628Z,20.06
2022-08-24T05:28:17.832Z,20.16
2022-08-24T05:30:46.329Z,20.19
2022-08-24T05:33:19.255Z,20.26
2022-08-24T05:35:50.307Z,20.34
2022-08-24T05:38:18.426Z,20.43
2022-08-24T05:40:46.599Z,20.50
2022-08-24T05:43:15.045Z,20.62
2022-08-24T05:45:44.884Z,20.73
2022-08-24T05:48:13.237Z,20.84
2022-08-24T05:51:17.688Z,20.99
2022-08-24T05:53:55.426Z,21.10
2022-08-24T05:59:01.630Z,21.37
2022-08-24T06:01:30.381Z,21.47
2022-08-24T06:03:59.403Z,21.62
2022-08-24T06:06:29.598Z,21.76
2022-08-24T06:08:59.580Z,21.84
2022-08-24T06:11:30.788Z,21.91
2022-08-24T06:14:03.023Z,21.97
2022-08-24T06:16:37.791Z,21.96
2022-08-24T06:19:07.502Z,21.99
2022-08-24T06:21:38.118Z,22.04
2022-08-24T06:24:07.981Z,22.06
2022-08-24T06:26:54.376Z,22.09
2022-08-24T06:29:23.420Z,22.04
2022-08-24T06:31:56.450Z,22.08
2022-08-24T06:34:27.091Z,22.12
2022-08-24T06:36:57.115Z,22.19
2022-08-24T06:39:27.448Z,22.26
2022-08-24T06:41:58.079Z,22.31
2022-08-24T06:44:34.782Z,22.40
2022-08-24T06:47:12.442Z,22.49
2022-08-24T06:49:41.420Z,22.63
2022-08-24T06:52:11.591Z,22.72
2022-08-24T06:54:40.297Z,22.76
2022-08-24T06:57:09.108Z,22.77
2022-08-24T06:59:37.274Z,22.84
2022-08-24T07:02:06.721Z,22.95
2022-08-24T07:04:35.696Z,23.06
2022-08-24T07:07:23.755Z,23.11
2022-08-24T07:09:52.001Z,23.19
2022-08-24T07:12:20.986Z,23.28
2022-08-24T07:14:49.086Z,23.27
2022-08-24T07:17:18.884Z,23.21
2022-08-24T07:19:47.955Z,23.29
2022-08-24T07:22:30.649Z,23.30
2022-08-24T07:24:58.946Z,23.33
2022-08-24T07:27:28.799Z,23.37
2022-08-24T07:30:23.138Z,23.46
2022-08-24T07:32:46.229Z,23.45
2022-08-24T07:35:14.449Z,23.42
2022-08-24T07:37:44.028Z,23.45
2022-08-24T07:40:13.651Z,23.52
2022-08-24T07:42:42.394Z,23.60
2022-08-24T07:45:11.383Z,23.81
2022-08-24T07:47:47.076Z,23.90
2022-08-24T07:50:32.998Z,24.05
2022-08-24T07:53:03.222Z,24.07
2022-08-24T07:55:34.043Z,24.25
2022-08-24T07:58:15.269Z,24.43
2022-08-24T08:00:47.754Z,24.45
2022-08-24T08:03:15.988Z,24.40
2022-08-24T08:05:45.529Z,24.43
2022-08-24T08:08:15.153Z,24.48
2022-08-24T08:10:43.585Z,24.61
2022-08-24T08:13:11.984Z,24.68
2022-08-24T08:15:40.462Z,24.83
2022-08-24T08:18:11.393Z,24.91
2022-08-24T08:20:42.943Z,24.82
2022-08-24T08:23:31.654Z,24.94
2022-08-24T08:26:17.386Z,25.08
2022-08-24T08:29:03.386Z,25.12
2022-08-24T08:31:34.422Z,25.04
2022-08-24T08:34:04.680Z,25.10
2022-08-24T08:36:33.480Z,25.02
2022-08-24T08:39:04.118Z,25.02
2022-08-24T08:42:06.364Z,25.24
2022-08-24T08:44:59.792Z,25.45
2022-08-24T08:47:52.266Z,25.77
2022-08-24T08:50:30.849Z,25.94
2022-08-24T08:53:32.861Z,26.16
2022-08-24T08:56:16.720Z,26.19
2022-08-24T08:58:59.366Z,26.52
2022-08-24T09:01:47.976Z,26.79
2022-08-24T09:04:48.965Z,26.98
2022-08-24T09:07:36.994Z,26.88
2022-08-24T09:10:34.966Z,26.95
2022-08-24T09:13:24.856Z,27.20
2022-08-24T09:16:12.154Z,27.28
2022-08-24T09:18:56.369Z,27.19
2022-08-24T09:21:47.060Z,27.09
2022-08-24T09:24:38.472Z,27.26
2022-08-24T09:27:33.070Z,27.43
2022-08-24T09:30:11.581Z,27.37
2022-08-24T09:33:00.165Z,27.46
2022-08-24T09:35:36.823Z,27.59
2022-08-24T09:38:20.283Z,27.70
2022-08-24T09:41:04.796Z,27.61
2022-08-24T09:44:04.327Z,27.57
2022-08-24T09:47:10.547Z,27.79
2022-08-24T09:50:07.069Z,27.77
2022-08-24T09:53:28.423Z,27.79
2022-08-24T09:56:06.614Z,27.96
2022-08-24T09:58:50.547Z,28.31
2022-08-24T10:01:27.109Z,28.50
2022-08-24T10:04:11.343Z,28.63
2022-08-24T10:06:51.997Z,28.85
2022-08-24T10:09:50.340Z,28.74
2022-08-24T10:12:33.055Z,28.41
2022-08-24T10:15:06.296Z,28.17
2022-08-24T10:17:46.850Z,28.07
2022-08-24T10:20:24.688Z,28.04
2022-08-24T10:23:08.005Z,27.89
2022-08-24T10:25:40.989Z,27.70
2022-08-24T10:28:40.320Z,27.56
2022-08-24T10:31:12.902Z,27.76
2022-08-24T10:33:59.204Z,27.73
2022-08-24T10:37:01.829Z,27.94
2022-08-24T10:40:01.799Z,27.78
2022-08-24T10:43:11.427Z,28.03
2022-08-24T10:46:02.283Z,27.91
2022-08-24T10:48:56.092Z,27.95
2022-08-24T10:51:36.208Z,27.94
2022-08-24T10:54:07.328Z,27.68
2022-08-24T10:56:42.644Z,27.60
2022-08-24T10:59:23.726Z,27.55
2022-08-24T11:02:11.928Z,27.65
2022-08-24T11:04:41.715Z,27.68
2022-08-24T11:07:18.529Z,27.58
2022-08-24T11:09:53.494Z,27.65
2022-08-24T11:12:29.808Z,27.84
2022-08-24T11:14:59.622Z,27.79
2022-08-24T11:17:29.617Z,27.88
2022-08-24T11:19:59.319Z,28.01
2022-08-24T11:22:39.513Z,27.96
2022-08-24T11:25:16.102Z,28.06
2022-08-24T11:27:48.029Z,28.09
2022-08-24T11:30:25.277Z,27.99
2022-08-24T11:32:56.498Z,27.90
2022-08-24T11:35:27.315Z,27.88
2022-08-24T11:37:58.032Z,27.95
2022-08-24T11:40:31.139Z,27.38
2022-08-24T11:43:22.598Z,26.83
2022-08-24T11:46:08.035Z,25.62
2022-08-24T11:48:49.012Z,25.13
2022-08-24T11:51:28.802Z,24.75
2022-08-24T11:54:04.634Z,24.55
2022-08-24T11:56:39.663Z,24.45
2022-08-24T11:59:17.893Z,24.47
2022-08-24T12:01:51.330Z,24.53
2022-08-24T12:04:37.587Z,24.47
2022-08-24T12:07:20.805Z,24.49
2022-08-24T12:10:12.523Z,24.61
2022-08-24T12:12:48.247Z,24.73
2022-08-24T12:15:26.295Z,25.12
2022-08-24T12:18:01.494Z,25.29
2022-08-24T12:20:34.501Z,25.51
2022-08-24T12:23:07.754Z,25.84
2022-08-24T12:25:55.273Z,26.06
2022-08-24T12:28:29.225Z,26.27
2022-08-24T12:31:04.979Z,26.85
2022-08-24T12:33:39.651Z,26.52
2022-08-24T12:36:18.902Z,26.49
2022-08-24T12:38:52.067Z,26.43
2022-08-24T12:41:28.349Z,26.38
2022-08-24T12:44:04.201Z,26.23
2022-08-24T12:46:32.529Z,25.91
2022-08-24T12:49:06.229Z,25.77
2022-08-24T12:51:52.190Z,25.81
2022-08-24T12:54:39.627Z,25.62
2022-08-24T12:57:38.928Z,25.55
2022-08-24T13:00:17.684Z,25.50
2022-08-24T13:02:55.183Z,25.70
2022-08-24T13:05:23.590Z,25.89
2022-08-24T13:07:55.002Z,25.88
2022-08-24T13:10:43.391Z,25.66
2022-08-24T13:13:15.611Z,25.17
2022-08-24T13:16:03.869Z,24.82
2022-08-24T13:19:19.836Z,24.84
2022-08-24T13:21:52.586Z,24.86
2022-08-24T13:24:59.180Z,24.87
2022-08-24T13:28:01.505Z,24.76
2022-08-24T13:30:36.518Z,24.61
2022-08-24T13:33:10.219Z,24.52
2022-08-24T13:35:55.572Z,24.47
2022-08-24T13:38:52.509Z,24.68
2022-08-24T13:41:34.831Z,24.74
2022-08-24T13:44:11.350Z,24.95
2022-08-24T13:46:50.756Z,24.97
2022-08-24T13:49:34.245Z,25.01
2022-08-24T13:52:14.564Z,25.12
2022-08-24T13:54:54.011Z,25.20
2022-08-24T13:57:35.698Z,25.30
2022-08-24T14:00:18.796Z,25.35
2022-08-24T14:03:03.658Z,25.26
2022-08-24T14:05:38.514Z,-145.31
2022-08-24T14:08:23.547Z,-145.31
2022-08-24T14:11:00.262Z,-145.31
2022-08-24T14:13:45.136Z,-145.31
2022-08-24T14:16:51.106Z,-145.31
2022-08-24T14:19:26.144Z,-145.31
2022-08-24T14:22:02.198Z,-145.31
2022-08-24T14:24:42.510Z,-145.31
2022-08-24T14:27:39.766Z,-145.31
2022-08-24T14:30:43.198Z,-145.31
2022-08-24T14:33:20.292Z,-145.31
2022-08-24T14:36:04.573Z,-145.31
2022-08-24T14:38:52.901Z,-145.31
2022-08-24T14:41:56.197Z,-145.31
2022-08-24T14:44:54.194Z,-145.31
2022-08-24T14:47:42.758Z,-145.31
2022-08-24T14:50:17.283Z,-145.31
2022-08-24T14:53:08.307Z,-145.31
2022-08-24T14:55:48.248Z,-145.31
2022-08-24T14:58:30.219Z,-145.31
2022-08-24T15:01:26.396Z,-145.31
2022-08-24T15:04:14.210Z,-145.31
2022-08-24T15:06:48.366Z,-145.31
2022-08-24T15:09:22.716Z,-145.31
2022-08-24T15:11:55.405Z,-145.31
2022-08-24T15:14:37.476Z,-145.31
2022-08-24T15:17:10.815Z,-145.31
2022-08-24T15:19:50.581Z,-145.31
2022-08-24T15:22:27.450Z,-145.31
2022-08-24T15:25:03.729Z,-145.31
2022-08-24T15:27:44.004Z,-145.31
2022-08-24T15:30:24.270Z,-145.31
2022-08-24T15:32:56.014Z,-145.31
2022-08-24T15:35:29.831Z,-145.31
2022-08-24T15:37:58.980Z,-145.31
2022-08-24T15:40:30.525Z,-145.31
2022-08-24T15:43:04.080Z,-145.31
2022-08-24T15:45:34.562Z,-145.31
2022-08-24T15:48:05.468Z,-145.31
2022-08-24T15:50:36.891Z,-145.31
2022-08-24T15:53:11.413Z,-145.31
2022-08-24T15:55:41.710Z,-145.31
2022-08-24T15:58:28.005Z,-145.31
2022-08-24T16:01:19.613Z,-145.31
2022-08-24T16:03:52.191Z,-145.31
2022-08-24T16:06:36.338Z,-145.31
2022-08-24T16:09:10.315Z,-145.31
2022-08-24T16:11:41.236Z,-145.31
2022-08-24T16:14:16.335Z,-145.31
2022-08-24T16:16:46.815Z,-145.31
2022-08-24T16:19:26.086Z,-145.31
2022-08-24T16:22:01.078Z,-145.31
2022-08-24T16:24:36.018Z,-145.31
2022-08-24T16:27:08.268Z,-145.31
2022-08-24T16:29:52.736Z,-145.31
2022-08-24T16:32:32.345Z,-145.31
2022-08-24T16:35:18.011Z,-145.31
2022-08-24T16:37:46.216Z,-145.31
2022-08-24T16:40:14.405Z,-145.31
2022-08-24T16:42:43.214Z,-145.31
2022-08-24T16:45:17.381Z,-145.31
2022-08-24T16:47:46.913Z,-145.31
2022-08-24T16:50:16.733Z,-145.31
2022-08-24T16:52:45.261Z,-145.31
2022-08-24T16:55:14.597Z,-145.31
2022-08-24T16:57:43.406Z,-145.31
2022-08-24T17:00:17.787Z,-145.31
2022-08-24T17:02:48.287Z,-145.31
2022-08-24T17:05:17.910Z,-145.31
2022-08-24T17:07:46.399Z,-145.31
2022-08-24T17:10:16.847Z,-145.31
2022-08-24T17:12:45.058Z,-145.31
2022-08-24T17:15:16.198Z,-145.31
2022-08-24T17:17:49.386Z,-145.31
2022-08-24T17:20:17.635Z,-145.31
2022-08-24T17:22:45.829Z,-145.31
2022-08-24T17:25:14.202Z,-145.31
2022-08-24T17:27:42.801Z,-145.31
2022-08-24T17:30:12.181Z,-145.31
2022-08-24T17:32:41.740Z,-145.31
2022-08-24T17:35:10.591Z,-145.31
2022-08-24T17:37:38.775Z,-145.31
2022-08-24T17:40:11.650Z,-145.31
2022-08-24T17:42:50.814Z,-145.31
2022-08-24T17:45:20.404Z,-145.31
2022-08-24T17:47:50.597Z,-145.31
2022-08-24T17:50:19.880Z,-145.31
2022-08-24T17:52:48.488Z,-145.31
2022-08-24T17:55:25.027Z,-145.31
2022-08-24T17:57:53.871Z,-145.31
2022-08-24T18:00:22.302Z,-145.31
2022-08-24T18:02:51.922Z,-145.31
2022-08-24T18:05:20.498Z,-145.31
2022-08-24T18:07:54.210Z,-145.31
2022-08-24T18:10:25.661Z,-145.31
2022-08-24T18:12:54.313Z,-145.31
2022-08-24T18:15:22.881Z,-145.31
2022-08-24T18:18:06.867Z,-145.31
2022-08-24T18:20:39.904Z,-145.31
2022-08-24T18:23:11.341Z,-145.31
2022-08-24T18:25:45.485Z,-145.31
2022-08-24T18:28:15.137Z,-145.31
2022-08-24T18:30:44.091Z,-145.31
2022-08-24T18:33:13.860Z,-145.31
2022-08-24T18:35:42.108Z,-145.31
2022-08-24T18:38:10.382Z,-145.31
2022-08-24T18:40:38.953Z,-145.31
2022-08-24T18:43:08.249Z,-145.31
2022-08-24T18:45:37.069Z,-145.31
2022-08-24T18:48:05.907Z,-145.31
2022-08-24T18:50:40.127Z,-145.31
2022-08-24T18:53:12.491Z,-145.31
2022-08-24T18:55:42.553Z,-145.31
2022-08-24T18:58:10.996Z,-145.31
2022-08-24T19:00:41.123Z,-145.31
2022-08-24T19:03:12.546Z,-145.31
2022-08-24T19:05:45.436Z,-145.31
2022-08-24T19:08:16.408Z,-145.31
2022-08-24T19:10:44.682Z,-145.31
2022-08-24T19:13:18.261Z,-145.31
2022-08-24T19:15:47.625Z,-145.31
2022-08-24T19:18:17.493Z,-145.31
2022-08-24T19:20:50.177Z,-145.31
2022-08-24T19:23:22.972Z,-145.31
2022-08-24T19:25:52.031Z,-145.31
2022-08-24T19:28:21.485Z,-145.31
2022-08-24T19:30:52.783Z,-145.31
2022-08-24T19:33:26.052Z,-145.31
2022-08-24T19:35:56.614Z,-145.31
2022-08-24T19:38:26.282Z,-145.31
2022-08-24T19:40:56.542Z,-145.31
2022-08-24T19:43:26.664Z,-145.31
2022-08-24T19:46:08.931Z,-145.31
2022-08-24T19:48:40.690Z,-145.31
2022-08-24T19:51:14.058Z,-145.31
2022-08-24T19:53:43.715Z,-145.31
2022-08-24T19:56:12.468Z,-145.31
2022-08-24T19:58:46.633Z,-145.31
2022-08-24T20:01:20.223Z,-145.31
2022-08-24T20:03:49.277Z,-145.31
2022-08-24T20:06:21.272Z,-145.31
2022-08-24T20:08:49.661Z,-145.31
2022-08-24T20:11:19.000Z,-145.31
2022-08-24T20:13:47.541Z,-145.31
2022-08-24T20:16:20.100Z,-145.31
2022-08-24T20:18:48.589Z,-145.31
2022-08-24T20:21:18.293Z,-145.31
2022-08-24T20:23:46.450Z,-145.31
2022-08-24T20:26:15.099Z,-145.31
2022-08-24T20:28:47.705Z,-145.31
2022-08-24T20:31:17.347Z,-145.31
2022-08-24T20:33:45.720Z,-145.31
2022-08-24T20:36:24.001Z,-145.31
2022-08-24T20:38:53.023Z,-145.31
2022-08-24T20:41:21.526Z,-145.31
2022-08-24T20:43:49.860Z,-145.31
2022-08-24T20:46:18.098Z,-145.31
2022-08-24T20:48:55.731Z,-145.31
2022-08-24T20:51:25.674Z,-145.31
2022-08-24T20:53:54.028Z,-145.31
2022-08-24T20:56:27.742Z,-145.31
2022-08-24T20:59:00.165Z,-145.31
2022-08-24T21:01:28.379Z,-145.31
2022-08-24T21:04:00.321Z,-145.31
2022-08-24T21:06:32.994Z,-145.31
2022-08-24T21:09:01.715Z,-145.31
2022-08-24T21:11:33.049Z,-145.31
2022-08-24T21:14:02.460Z,-145.31
2022-08-24T21:16:31.071Z,-145.31
2022-08-24T21:19:01.244Z,-145.31
2022-08-24T21:21:29.627Z,-145.31
2022-08-24T21:23:59.249Z,-145.31
2022-08-24T21:26:31.607Z,-145.31
2022-08-24T21:29:00.093Z,-145.31
2022-08-24T21:31:29.273Z,-145.31
2022-08-24T21:34:14.795Z,-145.31
2022-08-24T21:36:43.563Z,-145.31
2022-08-24T21:39:13.077Z,-145.31
2022-08-24T21:41:41.502Z,-145.31
2022-08-24T21:44:09.653Z,-145.31
2022-08-24T21:46:40.462Z,-145.31
2022-08-24T21:49:12.282Z,-145.31
2022-08-24T21:51:40.720Z,-145.31
2022-08-24T21:54:09.558Z,-145.31
2022-08-24T21:56:39.267Z,-145.31
2022-08-24T21:59:08.423Z,-145.31
2022-08-24T22:01:38.750Z,-145.31
2022-08-24T22:04:08.063Z,-145.31
2022-08-24T22:06:36.643Z,-145.31
2022-08-24T22:09:06.974Z,-145.31
2022-08-24T22:11:35.483Z,-145.31
2022-08-24T22:14:05.385Z,-145.31
2022-08-24T22:16:36.875Z,-145.31
2022-08-24T22:19:05.815Z,-145.31
2022-08-24T22:21:36.032Z,-145.31
2022-08-24T22:24:05.080Z,-145.31
2022-08-24T22:26:33.518Z,-145.31
2022-08-24T22:29:02.474Z,-145.31
2022-08-24T22:31:35.013Z,-145.31
2022-08-24T22:34:07.092Z,-145.31
2022-08-24T22:36:35.776Z,-145.31
2022-08-24T22:39:05.659Z,-145.31
2022-08-24T22:41:33.897Z,-145.31
2022-08-24T22:44:20.349Z,-145.31
2022-08-24T22:46:51.919Z,-145.31
2022-08-24T22:49:21.418Z,-145.31
2022-08-24T22:51:50.048Z,-145.31
2022-08-24T22:54:19.042Z,-145.31
2022-08-24T22:56:49.507Z,-145.31
2022-08-24T22:59:19.536Z,-145.31
2022-08-24T23:01:51.385Z,-145.31
2022-08-24T23:04:23.390Z,-145.31
2022-08-24T23:06:51.694Z,-145.31
2022-08-24T23:09:20.118Z,-145.31
2022-08-24T23:11:48.481Z,-145.31
2022-08-24T23:14:16.918Z,-145.31
2022-08-24T23:16:47.893Z,-145.31
2022-08-24T23:19:36.164Z,-145.31
2022-08-24T23:22:05.291Z,-145.31
2022-08-24T23:24:34.145Z,-145.31
2022-08-24T23:27:03.147Z,-145.31
2022-08-24T23:29:32.054Z,-145.31
2022-08-24T23:32:00.583Z,-145.31
2022-08-24T23:34:30.785Z,-145.31
2022-08-24T23:36:59.239Z,-145.31
2022-08-24T23:39:28.551Z,-145.31
2022-08-24T23:41:56.711Z,-145.31
2022-08-24T23:44:28.507Z,-145.31
2022-08-24T23:46:58.255Z,-145.31
2022-08-24T23:49:30.849Z,-145.31
2022-08-24T23:51:59.827Z,-145.31
2022-08-24T23:54:28.565Z,-145.31
2022-08-24T23:56:57.701Z,-145.31
2022-08-24T23:59:29.409Z,-145.31
